Terminal Aerodrome Forecast
Issued by NWS

Home | Current Version | Previous Version | Text Only | Print | Product List | Glossary On
Versions: 1 2 3 4 5 6 7 8 9 10 11 12
574
FTUS44 KSJT 261833 RRA
TAFSOA
TAF
KSOA 261833Z 2619/2718 31014G23KT P6SM SCT250
     FM270000 35009KT P6SM SCT250
     FM270500 17007KT P6SM FEW250
     FM271600 19012G20KT P6SM SCT250=

USA.gov is the U.S. government's official web portal to all federal, state and local government web resources and services.